createdAt,value
2022-08-22T00:01:04.169Z,39.28
2022-08-22T00:03:39.295Z,34.58
2022-08-22T00:06:21.020Z,38.83
2022-08-22T00:09:04.031Z,48.47
2022-08-22T00:11:42.138Z,44.73
2022-08-22T00:14:18.274Z,47.28
2022-08-22T00:17:24.101Z,40.53
2022-08-22T00:19:54.415Z,46.50
2022-08-22T00:22:48.253Z,50.13
2022-08-22T00:25:25.446Z,50.15
2022-08-22T00:28:00.392Z,45.35
2022-08-22T00:30:27.876Z,35.97
2022-08-22T00:33:09.336Z,37.85
2022-08-22T00:35:46.295Z,56.10
2022-08-22T00:38:33.348Z,43.55
2022-08-22T00:41:12.713Z,40.42
2022-08-22T00:44:23.080Z,44.65
2022-08-22T00:47:16.295Z,54.60
2022-08-22T00:50:14.463Z,46.33
2022-08-22T00:53:04.214Z,40.33
2022-08-22T00:55:40.775Z,52.30
2022-08-22T00:58:20.998Z,46.33
2022-08-22T01:00:54.354Z,37.95
2022-08-22T01:03:34.654Z,33.83
2022-08-22T01:06:48.328Z,49.17
2022-08-22T01:09:31.540Z,36.35
2022-08-22T01:12:40.624Z,50.58
2022-08-22T01:15:10.208Z,44.65
2022-08-22T01:17:48.661Z,50.22
2022-08-22T01:20:49.518Z,55.22
2022-08-22T01:23:37.866Z,41.75
2022-08-22T01:26:32.913Z,45.42
2022-08-22T01:29:31.818Z,65.80
2022-08-22T01:32:11.138Z,52.53
2022-08-22T01:34:47.510Z,54.00
2022-08-22T01:37:14.743Z,45.45
2022-08-22T01:40:00.217Z,47.53
2022-08-22T01:43:05.971Z,56.25
2022-08-22T01:45:58.694Z,53.55
2022-08-22T01:48:47.764Z,62.00
2022-08-22T01:51:28.652Z,39.60
2022-08-22T01:54:08.154Z,54.45
2022-08-22T01:56:39.401Z,52.70
2022-08-22T02:02:14.133Z,55.40
2022-08-22T02:05:09.703Z,46.72
2022-08-22T02:07:46.230Z,40.10
2022-08-22T02:10:13.910Z,51.65
2022-08-22T02:12:41.787Z,46.55
2022-08-22T02:15:22.882Z,52.42
2022-08-22T02:18:13.151Z,48.85
2022-08-22T02:21:14.367Z,40.40
2022-08-22T02:23:44.755Z,40.25
2022-08-22T02:26:17.794Z,41.53
2022-08-22T02:28:57.184Z,49.90
2022-08-22T02:31:53.080Z,44.08
2022-08-22T02:34:31.638Z,53.15
2022-08-22T02:37:30.073Z,55.03
2022-08-22T02:40:17.691Z,48.05
2022-08-22T02:43:10.029Z,48.85
2022-08-22T02:45:48.069Z,51.92
2022-08-22T02:48:45.490Z,56.75
2022-08-22T02:51:32.903Z,60.55
2022-08-22T02:54:30.817Z,37.35
2022-08-22T02:57:14.252Z,46.42
2022-08-22T03:00:30.878Z,55.78
2022-08-22T03:03:04.190Z,57.83
2022-08-22T03:05:37.247Z,55.20
2022-08-22T03:08:24.877Z,53.70
2022-08-22T03:11:04.971Z,50.75
2022-08-22T03:14:04.917Z,41.30
2022-08-22T03:16:40.371Z,56.30
2022-08-22T03:19:07.561Z,64.03
2022-08-22T03:21:43.490Z,45.80
2022-08-22T03:24:38.817Z,45.97
2022-08-22T03:27:32.269Z,44.60
2022-08-22T03:30:12.693Z,67.22
2022-08-22T03:32:56.254Z,55.00
2022-08-22T03:35:26.533Z,47.90
2022-08-22T03:37:57.038Z,49.03
2022-08-22T03:40:31.711Z,45.53
2022-08-22T03:43:21.464Z,43.75
2022-08-22T03:46:07.884Z,43.25
2022-08-22T03:48:41.346Z,46.13
2022-08-22T03:51:20.867Z,38.00
2022-08-22T03:54:06.547Z,46.72
2022-08-22T03:56:58.934Z,53.35
2022-08-22T03:59:36.845Z,50.63
2022-08-22T04:02:43.561Z,55.67
2022-08-22T04:05:34.805Z,50.17
2022-08-22T04:08:26.957Z,37.97
2022-08-22T04:11:18.175Z,45.42
2022-08-22T04:13:57.756Z,50.25
2022-08-22T04:16:49.125Z,38.88
2022-08-22T04:19:28.702Z,51.58
2022-08-22T04:22:08.570Z,42.17
2022-08-22T04:24:54.216Z,33.05
2022-08-22T04:27:21.523Z,49.22
2022-08-22T04:30:01.956Z,43.92
2022-08-22T04:32:37.310Z,46.00
2022-08-22T04:35:27.862Z,41.58
2022-08-22T04:38:21.855Z,48.40
2022-08-22T04:40:52.762Z,38.85
2022-08-22T04:43:26.091Z,43.13
2022-08-22T04:46:11.381Z,39.28
2022-08-22T04:48:48.249Z,39.20
2022-08-22T04:51:32.230Z,41.28
2022-08-22T04:54:11.717Z,50.90
2022-08-22T04:56:57.663Z,44.42
2022-08-22T04:59:25.066Z,38.47
2022-08-22T05:01:56.660Z,53.53
2022-08-22T05:04:37.492Z,55.55
2022-08-22T05:07:26.554Z,41.05
2022-08-22T05:09:56.524Z,40.50
2022-08-22T05:12:31.098Z,48.53
2022-08-22T05:15:02.966Z,49.05
2022-08-22T05:17:30.458Z,45.00
2022-08-22T05:20:00.420Z,25.90
2022-08-22T05:22:29.176Z,38.55
2022-08-22T05:25:02.152Z,37.60
2022-08-22T05:27:32.256Z,31.08
2022-08-22T05:30:08.132Z,39.42
2022-08-22T05:33:04.082Z,46.90
2022-08-22T05:35:38.189Z,39.47
2022-08-22T05:38:07.450Z,42.63
2022-08-22T05:40:35.193Z,38.53
2022-08-22T05:43:05.188Z,35.85
2022-08-22T05:45:32.445Z,37.58
2022-08-22T05:48:08.938Z,37.22
2022-08-22T05:50:52.769Z,28.60
2022-08-22T05:53:41.500Z,41.78
2022-08-22T05:56:26.383Z,35.67
2022-08-22T05:58:56.234Z,38.13
2022-08-22T06:01:35.524Z,29.55
2022-08-22T06:04:13.924Z,35.67
2022-08-22T06:06:51.238Z,34.85
2022-08-22T06:09:36.994Z,27.13
2022-08-22T06:12:21.739Z,34.45
2022-08-22T06:14:58.396Z,33.15
2022-08-22T06:17:36.227Z,33.10
2022-08-22T06:20:06.460Z,25.70
2022-08-22T06:22:38.487Z,35.15
2022-08-22T06:25:14.853Z,32.05
2022-08-22T06:27:43.226Z,25.60
2022-08-22T06:30:12.945Z,38.33
2022-08-22T06:32:59.753Z,22.90
2022-08-22T06:35:50.638Z,30.20
2022-08-22T06:38:19.589Z,31.77
2022-08-22T06:40:47.235Z,34.55
2022-08-22T06:43:15.195Z,30.15
2022-08-22T06:45:42.495Z,17.50
2022-08-22T06:48:09.783Z,35.90
2022-08-22T06:50:41.888Z,21.02
2022-08-22T06:53:34.475Z,29.60
2022-08-22T06:56:11.333Z,23.15
2022-08-22T06:58:43.634Z,24.73
2022-08-22T07:01:16.873Z,22.83
2022-08-22T07:03:50.919Z,28.17
2022-08-22T07:06:27.191Z,23.65
2022-08-22T07:08:55.408Z,20.45
2022-08-22T07:11:28.057Z,23.73
2022-08-22T07:14:00.517Z,20.02
2022-08-22T07:16:32.253Z,27.98
2022-08-22T07:18:59.668Z,23.42
2022-08-22T07:21:36.210Z,19.45
2022-08-22T07:24:04.252Z,22.52
2022-08-22T07:27:13.423Z,17.92
2022-08-22T07:29:48.776Z,27.88
2022-08-22T07:32:18.136Z,30.15
2022-08-22T07:34:59.462Z,26.17
2022-08-22T07:40:30.199Z,22.38
2022-08-22T07:43:23.523Z,23.75
2022-08-22T07:46:11.034Z,27.25
2022-08-22T07:49:08.304Z,23.63
2022-08-22T07:51:41.086Z,23.00
2022-08-22T07:54:10.296Z,30.20
2022-08-22T07:56:46.518Z,22.48
2022-08-22T07:59:16.380Z,19.23
2022-08-22T08:01:48.744Z,25.58
2022-08-22T08:04:19.163Z,22.10
2022-08-22T08:06:52.716Z,29.73
2022-08-22T08:09:20.206Z,18.15
2022-08-22T08:11:48.154Z,19.23
2022-08-22T08:14:15.552Z,21.40
2022-08-22T08:16:55.500Z,22.92
2022-08-22T08:19:22.907Z,31.90
2022-08-22T08:21:53.560Z,18.52
2022-08-22T08:24:24.354Z,11.48
2022-08-22T08:27:14.641Z,20.02
2022-08-22T08:29:43.858Z,29.63
2022-08-22T08:32:11.418Z,25.55
2022-08-22T08:34:39.398Z,13.50
2022-08-22T08:37:27.908Z,17.58
2022-08-22T08:39:57.360Z,25.45
2022-08-22T08:43:01.935Z,18.48
2022-08-22T08:46:00.872Z,18.67
2022-08-22T08:48:32.438Z,13.65
2022-08-22T08:53:59.780Z,19.65
2022-08-22T08:56:47.516Z,23.02
2022-08-22T08:59:25.630Z,13.63
2022-08-22T09:02:08.925Z,21.77
2022-08-22T09:04:40.993Z,18.40
2022-08-22T09:07:32.943Z,25.10
2022-08-22T09:10:08.514Z,21.63
2022-08-22T09:13:12.186Z,13.48
2022-08-22T09:15:58.604Z,25.35
2022-08-22T09:18:55.130Z,15.75
2022-08-22T09:21:59.951Z,16.50
2022-08-22T09:24:33.141Z,17.92
2022-08-22T09:27:02.198Z,15.77
2022-08-22T09:29:57.005Z,19.52
2022-08-22T09:32:45.311Z,11.75
2022-08-22T09:35:34.450Z,26.35
2022-08-22T09:38:19.871Z,19.58
2022-08-22T09:41:00.322Z,15.27
2022-08-22T09:43:48.536Z,14.90
2022-08-22T09:46:32.150Z,16.10
2022-08-22T09:49:14.308Z,28.95
2022-08-22T09:52:15.595Z,13.48
2022-08-22T09:55:16.129Z,11.50
2022-08-22T09:57:48.641Z,20.15
2022-08-22T10:00:25.886Z,11.75
2022-08-22T10:03:15.851Z,15.25
2022-08-22T10:05:52.409Z,19.42
2022-08-22T10:08:37.634Z,11.10
2022-08-22T10:11:42.340Z,15.65
2022-08-22T10:14:28.124Z,16.27
2022-08-22T10:17:16.636Z,12.75
2022-08-22T10:20:25.077Z,21.33
2022-08-22T10:23:29.744Z,22.75
2022-08-22T10:26:08.100Z,15.05
2022-08-22T10:28:37.866Z,14.95
2022-08-22T10:31:22.363Z,20.90
2022-08-22T10:34:01.592Z,27.17
2022-08-22T10:36:45.222Z,29.40
2022-08-22T10:39:19.319Z,11.93
2022-08-22T10:41:59.449Z,16.05
2022-08-22T10:44:41.270Z,18.05
2022-08-22T10:47:13.761Z,12.75
2022-08-22T10:49:54.071Z,21.80
2022-08-22T10:53:13.179Z,24.60
2022-08-22T10:55:40.969Z,8.95
2022-08-22T10:58:13.371Z,17.80
2022-08-22T11:00:49.755Z,12.88
2022-08-22T11:03:48.703Z,14.30
2022-08-22T11:06:21.674Z,13.35
2022-08-22T11:09:13.600Z,18.27
2022-08-22T11:12:18.365Z,20.05
2022-08-22T11:15:08.874Z,20.70
2022-08-22T11:17:59.935Z,23.17
2022-08-22T11:20:47.917Z,20.05
2022-08-22T11:23:50.539Z,17.58
2022-08-22T11:26:47.122Z,15.98
2022-08-22T11:29:23.271Z,22.90
2022-08-22T11:32:06.072Z,16.90
2022-08-22T11:34:50.442Z,18.77
2022-08-22T11:37:42.666Z,14.55
2022-08-22T11:40:24.911Z,19.98
2022-08-22T11:43:18.427Z,18.17
2022-08-22T11:45:48.223Z,20.33
2022-08-22T11:51:45.382Z,14.82
2022-08-22T11:54:17.493Z,14.73
2022-08-22T11:56:50.102Z,17.77
2022-08-22T11:59:48.036Z,11.75
2022-08-22T12:02:39.921Z,16.42
2022-08-22T12:05:20.219Z,19.60
2022-08-22T12:08:12.912Z,10.70
2022-08-22T12:10:49.446Z,15.38
2022-08-22T12:13:34.730Z,13.27
2022-08-22T12:16:08.624Z,18.02
2022-08-22T12:19:08.327Z,17.30
2022-08-22T12:21:50.815Z,18.55
2022-08-22T12:24:32.604Z,15.55
2022-08-22T12:27:41.970Z,17.00
2022-08-22T12:30:38.016Z,15.25
2022-08-22T12:33:28.044Z,15.32
2022-08-22T12:36:34.852Z,11.27
2022-08-22T12:39:08.179Z,11.50
2022-08-22T12:42:04.120Z,9.43
2022-08-22T12:45:10.508Z,14.60
2022-08-22T12:47:49.127Z,14.25
2022-08-22T12:50:34.650Z,13.63
2022-08-22T12:53:20.305Z,8.80
2022-08-22T12:56:13.583Z,12.40
2022-08-22T12:58:46.789Z,14.30
2022-08-22T13:01:18.619Z,13.30
2022-08-22T13:03:49.373Z,10.63
2022-08-22T13:06:35.060Z,16.10
2022-08-22T13:09:09.845Z,8.77
2022-08-22T13:11:39.509Z,11.95
2022-08-22T13:14:08.114Z,12.32
2022-08-22T13:16:51.001Z,9.55
2022-08-22T13:19:22.328Z,5.78
2022-08-22T13:22:10.102Z,16.63
2022-08-22T13:24:58.365Z,15.88
2022-08-22T13:28:03.403Z,10.48
2022-08-22T13:30:37.597Z,9.43
2022-08-22T13:33:16.387Z,13.73
2022-08-22T13:35:51.971Z,12.07
2022-08-22T13:38:28.102Z,14.95
2022-08-22T13:40:59.080Z,16.42
2022-08-22T13:43:34.486Z,11.15
2022-08-22T13:46:06.739Z,11.52
2022-08-22T13:48:49.578Z,13.13
2022-08-22T13:51:31.336Z,14.43
2022-08-22T13:54:40.173Z,10.10
2022-08-22T13:57:27.463Z,10.65
2022-08-22T14:00:28.625Z,12.65
2022-08-22T14:03:19.990Z,25.23
2022-08-22T14:05:53.140Z,8.52
2022-08-22T14:08:40.486Z,7.30
2022-08-22T14:11:25.852Z,15.32
2022-08-22T14:14:03.917Z,7.30
2022-08-22T14:16:39.103Z,14.35
2022-08-22T14:19:11.445Z,10.85
2022-08-22T14:21:51.886Z,6.20
2022-08-22T14:24:26.922Z,13.38
2022-08-22T14:26:57.820Z,13.40
2022-08-22T14:32:08.786Z,5.10
2022-08-22T14:34:37.557Z,11.02
2022-08-22T14:37:13.139Z,16.27
2022-08-22T14:39:42.775Z,11.50
2022-08-22T14:42:27.726Z,12.23
2022-08-22T14:45:10.142Z,9.93
2022-08-22T14:47:55.543Z,6.13
2022-08-22T14:50:54.848Z,12.50
2022-08-22T14:53:28.980Z,16.80
2022-08-22T14:56:05.684Z,7.78
2022-08-22T14:58:35.326Z,17.35
2022-08-22T15:01:11.209Z,8.57
2022-08-22T15:03:39.281Z,6.65
2022-08-22T15:06:07.315Z,10.20
2022-08-22T15:08:46.237Z,5.68
2022-08-22T15:11:22.669Z,4.72
2022-08-22T15:13:56.185Z,6.03
2022-08-22T15:16:43.406Z,7.60
2022-08-22T15:19:32.979Z,9.57
2022-08-22T15:22:11.235Z,10.52
2022-08-22T15:25:01.877Z,13.30
2022-08-22T15:27:30.390Z,19.08
2022-08-22T15:30:07.009Z,14.65
2022-08-22T15:32:46.389Z,11.68
2022-08-22T15:35:27.338Z,14.60
2022-08-22T15:38:04.915Z,7.15
2022-08-22T15:40:45.738Z,14.20
2022-08-22T15:43:42.457Z,13.43
2022-08-22T15:46:21.838Z,9.18
2022-08-22T15:48:56.160Z,12.10
2022-08-22T15:51:34.188Z,10.18
2022-08-22T15:54:25.316Z,10.10
2022-08-22T15:56:56.026Z,10.98
2022-08-22T15:59:29.799Z,8.95
2022-08-22T16:02:21.271Z,10.60
2022-08-22T16:05:11.523Z,5.80
2022-08-22T16:07:43.081Z,12.32
2022-08-22T16:10:22.651Z,8.93
2022-08-22T16:13:17.343Z,15.13
2022-08-22T16:15:55.963Z,15.38
2022-08-22T16:18:45.308Z,13.27
2022-08-22T16:21:13.338Z,14.70
2022-08-22T16:23:46.634Z,14.77
2022-08-22T16:26:24.263Z,14.00
2022-08-22T16:28:59.444Z,19.40
2022-08-22T16:31:46.006Z,22.05
2022-08-22T16:34:16.515Z,12.10
2022-08-22T16:37:08.545Z,15.27
2022-08-22T16:39:42.102Z,7.43
2022-08-22T16:42:15.756Z,13.15
2022-08-22T16:45:12.115Z,11.05
2022-08-22T16:47:41.469Z,14.02
2022-08-22T16:50:23.841Z,8.93
2022-08-22T16:53:04.821Z,15.75
2022-08-22T16:55:35.872Z,20.77
2022-08-22T16:58:15.287Z,12.10
2022-08-22T17:01:05.094Z,13.00
2022-08-22T17:03:32.368Z,10.73
2022-08-22T17:06:26.600Z,9.15
2022-08-22T17:09:18.217Z,16.50
2022-08-22T17:14:33.821Z,17.65
2022-08-22T17:17:19.881Z,12.55
2022-08-22T17:20:02.784Z,15.70
2022-08-22T17:22:59.935Z,9.48
2022-08-22T17:25:44.862Z,9.63
2022-08-22T17:28:17.076Z,13.38
2022-08-22T17:31:02.578Z,13.05
2022-08-22T17:34:05.593Z,9.68
2022-08-22T17:36:57.320Z,9.70
2022-08-22T17:39:29.081Z,9.82
2022-08-22T17:42:19.022Z,13.27
2022-08-22T17:45:28.186Z,14.93
2022-08-22T17:47:58.382Z,10.90
2022-08-22T17:50:32.824Z,12.37
2022-08-22T17:53:24.803Z,11.65
2022-08-22T17:56:18.162Z,9.07
2022-08-22T17:58:50.892Z,6.90
2022-08-22T18:01:37.369Z,15.30
2022-08-22T18:04:06.022Z,7.85
2022-08-22T18:06:35.537Z,13.02
2022-08-22T18:09:16.569Z,6.70
2022-08-22T18:11:52.468Z,13.70
2022-08-22T18:14:34.013Z,7.15
2022-08-22T18:17:01.785Z,15.48
2022-08-22T18:19:55.883Z,11.50
2022-08-22T18:22:30.273Z,19.02
2022-08-22T18:25:07.700Z,14.75
2022-08-22T18:27:45.924Z,6.65
2022-08-22T18:30:23.414Z,12.13
2022-08-22T18:33:06.246Z,13.85
2022-08-22T18:35:45.017Z,14.55
2022-08-22T18:38:20.197Z,9.75
2022-08-22T18:41:14.740Z,14.20
2022-08-22T18:43:45.047Z,13.23
2022-08-22T18:46:37.906Z,10.63
2022-08-22T18:49:20.894Z,22.48
2022-08-22T18:52:09.330Z,19.05
2022-08-22T18:54:58.225Z,11.60
2022-08-22T18:57:26.557Z,18.30
2022-08-22T19:00:10.146Z,15.98
2022-08-22T19:02:55.300Z,14.10
2022-08-22T19:05:25.995Z,13.18
2022-08-22T19:08:30.698Z,12.02
2022-08-22T19:11:19.698Z,21.77
2022-08-22T19:13:55.222Z,24.67
2022-08-22T19:16:25.624Z,16.05
2022-08-22T19:18:53.553Z,12.02
2022-08-22T19:21:43.422Z,19.85
2022-08-22T19:24:19.740Z,12.65
2022-08-22T19:26:51.203Z,14.93
2022-08-22T19:29:18.607Z,11.15
2022-08-22T19:31:56.373Z,11.55
2022-08-22T19:34:30.914Z,21.73
2022-08-22T19:37:32.134Z,11.10
2022-08-22T19:40:41.867Z,18.30
2022-08-22T19:43:27.742Z,18.40
2022-08-22T19:45:55.872Z,22.35
2022-08-22T19:48:28.242Z,19.20
2022-08-22T19:51:11.415Z,16.10
2022-08-22T19:54:01.935Z,15.45
2022-08-22T19:56:55.145Z,16.77
2022-08-22T19:59:35.545Z,10.07
2022-08-22T20:02:31.982Z,25.70
2022-08-22T20:05:22.222Z,12.70
2022-08-22T20:07:53.435Z,10.18
2022-08-22T20:13:19.706Z,16.48
2022-08-22T20:16:32.121Z,13.00
2022-08-22T20:19:09.557Z,20.40
2022-08-22T20:21:52.456Z,22.65
2022-08-22T20:24:22.002Z,16.15
2022-08-22T20:27:12.216Z,19.98
2022-08-22T20:29:39.855Z,16.52
2022-08-22T20:32:07.194Z,24.48
2022-08-22T20:34:37.870Z,14.02
2022-08-22T20:37:29.300Z,23.55
2022-08-22T20:40:53.522Z,16.67
2022-08-22T20:43:17.544Z,21.60
2022-08-22T20:46:01.261Z,26.15
2022-08-22T20:48:48.686Z,19.63
2022-08-22T20:51:19.355Z,16.73
2022-08-22T20:54:00.637Z,16.35
2022-08-22T20:59:36.045Z,18.48
2022-08-22T21:02:05.123Z,16.90
2022-08-22T21:04:42.782Z,22.58
2022-08-22T21:07:10.556Z,17.77
2022-08-22T21:09:56.402Z,19.73
2022-08-22T21:12:24.205Z,16.30
2022-08-22T21:14:52.334Z,22.92
2022-08-22T21:17:34.336Z,20.33
2022-08-22T21:20:21.311Z,25.70
2022-08-22T21:22:48.716Z,24.17
2022-08-22T21:25:16.004Z,23.23
2022-08-22T21:27:46.421Z,17.35
2022-08-22T21:30:21.958Z,23.15
2022-08-22T21:32:55.024Z,24.98
2022-08-22T21:35:32.665Z,19.02
2022-08-22T21:38:00.599Z,24.33
2022-08-22T21:40:33.996Z,13.30
2022-08-22T21:43:12.281Z,21.15
2022-08-22T21:45:39.537Z,23.58
2022-08-22T21:48:36.705Z,22.38
2022-08-22T21:51:22.701Z,21.48
2022-08-22T21:53:58.211Z,29.50
2022-08-22T21:56:37.837Z,21.90
2022-08-22T21:59:52.284Z,28.42
2022-08-22T22:02:31.487Z,27.27
2022-08-22T22:05:11.437Z,24.90
2022-08-22T22:07:44.147Z,26.42
2022-08-22T22:10:13.066Z,19.00
2022-08-22T22:12:41.806Z,20.98
2022-08-22T22:15:11.374Z,28.17
2022-08-22T22:17:38.797Z,23.80
2022-08-22T22:20:06.939Z,20.80
2022-08-22T22:22:34.618Z,24.70
2022-08-22T22:25:05.779Z,38.47
2022-08-22T22:27:53.255Z,19.50
2022-08-22T22:30:20.851Z,33.10
2022-08-22T22:32:49.357Z,34.65
2022-08-22T22:35:19.801Z,25.13
2022-08-22T22:37:47.165Z,37.28
2022-08-22T22:40:14.732Z,31.67
2022-08-22T22:42:42.839Z,31.35
2022-08-22T22:45:10.871Z,36.92
2022-08-22T22:47:38.507Z,41.97
2022-08-22T22:50:06.365Z,38.17
2022-08-22T22:52:34.583Z,30.55
2022-08-22T22:55:09.227Z,39.20
2022-08-22T22:57:41.306Z,28.95
2022-08-22T23:00:11.352Z,35.70
2022-08-22T23:02:42.400Z,34.10
2022-08-22T23:05:10.207Z,31.67
2022-08-22T23:07:37.680Z,40.38
2022-08-22T23:10:07.326Z,38.22
2022-08-22T23:12:36.225Z,32.25
2022-08-22T23:15:06.019Z,45.47
2022-08-22T23:17:33.943Z,43.97
2022-08-22T23:20:01.410Z,45.38
2022-08-22T23:22:30.226Z,38.83
2022-08-22T23:24:57.456Z,49.08
2022-08-22T23:27:25.068Z,34.25
2022-08-22T23:29:52.657Z,53.33
2022-08-22T23:32:20.048Z,45.30
2022-08-22T23:34:48.756Z,33.97
2022-08-22T23:37:18.239Z,40.83
2022-08-22T23:39:45.620Z,50.83
2022-08-22T23:42:13.271Z,42.67
2022-08-22T23:44:41.273Z,51.13
2022-08-22T23:47:09.167Z,41.95
2022-08-22T23:49:37.094Z,42.13
2022-08-22T23:52:04.787Z,49.38
2022-08-22T23:54:32.106Z,43.25
2022-08-22T23:57:00.702Z,48.10
2022-08-22T23:59:33.517Z,50.38
